Time;durP1;ratioP1;P1;durP2;ratioP2;P2;SDS_P1;SDS_P2;PMS_P1;PMS_P2;Temp;Humidity;BMP_temperature;BMP_pressure;BME280_temperature;BME280_humidity;BME280_pressure;Samples;Min_cycle;Max_cycle;Signal;HPM_P1;HPM_P2
2022/08/29 00:02:03;;;;;;;;;1.67;1.67;;;;;21.31;46.88;101024.41;5077893;28;45820;-74
2022/08/29 00:04:30;;;;;;;;;5.33;4.33;;;;;21.28;46.63;101021.75;5077401;28;45570;-74
2022/08/29 00:06:56;;;;;;;;;2.00;2.00;;;;;21.25;46.63;101021.84;5077450;28;44734;-74
2022/08/29 00:09:21;;;;;;;;;2.00;2.00;;;;;21.25;46.84;101018.25;5077898;28;44852;-74
2022/08/29 00:11:47;;;;;;;;;3.00;3.00;;;;;21.21;46.89;101021.94;5058987;28;44885;-74
2022/08/29 00:14:12;;;;;;;;;3.00;2.00;;;;;21.19;47.19;101019.31;5058743;28;47315;-74
2022/08/29 00:16:38;;;;;;;;;2.00;2.00;;;;;21.12;46.72;101010.44;5077104;28;45401;-74
2022/08/29 00:19:03;;;;;;;;;3.00;3.00;;;;;21.13;46.76;101019.47;5075675;28;45383;-74
2022/08/29 00:21:29;;;;;;;;;3.00;2.00;;;;;21.13;46.99;101019.47;5077521;28;45534;-74
2022/08/29 00:23:54;;;;;;;;;2.67;2.67;;;;;21.09;46.92;101017.78;5077448;28;45748;-74
2022/08/29 00:26:20;;;;;;;;;4.67;3.00;;;;;21.10;47.36;101022.22;5077091;28;45441;-74
2022/08/29 00:28:47;;;;;;;;;2.00;2.00;;;;;21.08;47.18;101021.38;5076941;28;45477;-74
2022/08/29 00:31:12;;;;;;;;;4.00;2.00;;;;;21.10;47.09;101016.81;5078386;28;45496;-74
2022/08/29 00:33:38;;;;;;;;;3.00;3.00;;;;;21.08;47.30;101018.69;5059295;28;47256;-74
2022/08/29 00:36:03;;;;;;;;;2.00;2.00;;;;;21.07;47.11;101020.50;5058628;28;45555;-74
2022/08/29 00:38:29;;;;;;;;;3.25;2.25;;;;;21.08;47.59;101018.69;5077177;28;45469;-74
2022/08/29 00:40:57;;;;;;;;;2.75;2.75;;;;;21.06;47.15;101020.53;5077690;28;45402;-74
2022/08/29 00:43:29;;;;;;;;;4.50;3.25;;;;;21.04;47.34;101019.69;5077276;28;45840;-74
2022/08/29 00:46:04;;;;;;;;;1.67;1.67;;;;;21.02;47.52;101017.00;5077060;28;45651;-74
2022/08/29 00:48:32;;;;;;;;;1.00;1.00;;;;;21.04;47.44;101012.44;5076848;28;44965;-74
2022/08/29 00:51:02;;;;;;;;;3.25;3.25;;;;;21.06;47.43;101018.72;5077132;28;45433;-74
2022/08/29 00:53:33;;;;;;;;;2.00;2.00;;;;;21.07;47.44;101020.50;5077056;28;45454;-74
2022/08/29 00:56:01;;;;;;;;;2.00;2.00;;;;;21.07;47.54;101020.50;5076670;28;45443;-74
2022/08/29 00:58:39;;;;;;;;;2.00;2.00;;;;;21.04;47.51;101019.69;5076545;28;45330;-74
2022/08/29 01:01:05;;;;;;;;;3.00;3.00;;;;;21.04;47.62;101015.16;5077030;28;45362;-74
2022/08/29 01:03:33;;;;;;;;;4.33;3.33;;;;;21.06;47.54;101015.13;5058287;28;46742;-74
2022/08/29 01:06:00;;;;;;;;;3.67;2.33;;;;;21.01;47.76;101015.25;5076397;28;45766;-74
2022/08/29 01:08:26;;;;;;;;;1.67;1.67;;;;;21.03;47.61;101009.81;5076274;28;44811;-74
2022/08/29 01:13:40;;;;;;;;;1.67;1.67;;;;;21.00;47.59;101001.75;5076267;28;45460;-74
2022/08/29 01:16:07;;;;;;;;;2.00;2.00;;;;;20.95;47.85;101020.81;5076585;28;45759;-75
2022/08/29 01:18:35;;;;;;;;;2.00;2.00;;;;;20.88;47.57;101013.75;5076411;28;45493;-74
2022/08/29 01:21:07;;;;;;;;;2.00;2.00;;;;;20.85;48.07;101014.72;5074894;28;45376;-74
2022/08/29 01:23:40;;;;;;;;;2.00;2.00;;;;;20.85;47.94;101017.44;5075452;28;45350;-74
2022/08/29 01:26:09;;;;;;;;;3.00;3.00;;;;;20.82;47.81;101003.97;5076292;28;45393;-74
2022/08/29 01:28:40;;;;;;;;;2.00;2.00;;;;;20.85;47.72;101009.31;5076812;28;45556;-74
2022/08/29 01:31:10;;;;;;;;;1.67;1.67;;;;;20.86;48.12;101011.09;5076592;28;45409;-73
2022/08/29 01:33:43;;;;;;;;;2.00;2.00;;;;;20.82;47.78;100992.28;5076553;28;45494;-73
2022/08/29 01:36:14;;;;;;;;;2.33;2.00;;;;;20.81;47.69;101001.34;5058235;28;45338;-73
2022/08/29 01:38:40;;;;;;;;;2.67;2.00;;;;;20.82;47.77;101009.38;5058114;27;45394;-73
2022/08/29 01:41:09;;;;;;;;;3.00;1.00;;;;;20.79;48.09;101012.19;5078584;27;45516;-73
2022/08/29 01:43:41;;;;;;;;;1.33;1.33;;;;;20.75;48.23;101013.19;5076390;28;45431;-74
2022/08/29 01:46:07;;;;;;;;;3.67;3.33;;;;;20.73;48.21;101021.31;5076043;28;45412;-73
2022/08/29 01:48:36;;;;;;;;;2.67;2.67;;;;;20.70;48.18;101009.69;5074945;28;45407;-74
2022/08/29 01:51:01;;;;;;;;;2.00;2.00;;;;;20.69;48.42;101005.22;5076488;28;45494;-74
2022/08/29 01:53:27;;;;;;;;;3.00;3.00;;;;;20.72;48.36;101010.53;5074595;28;48288;-74
2022/08/29 01:55:53;;;;;;;;;2.67;2.67;;;;;20.71;48.29;101006.06;5079523;27;45476;-74
2022/08/29 01:58:18;;;;;;;;;2.33;2.33;;;;;20.70;48.37;101005.19;5076181;28;45381;-73
2022/08/29 02:00:44;;;;;;;;;2.00;2.00;;;;;20.69;48.77;101002.50;5078130;28;45546;-74
2022/08/29 02:03:09;;;;;;;;;2.00;2.00;;;;;20.66;48.29;100998.03;5079264;28;45271;-73
2022/08/29 02:05:35;;;;;;;;;1.33;1.00;;;;;20.70;48.27;101004.28;5079304;28;45497;-75
2022/08/29 02:08:01;;;;;;;;;1.33;1.33;;;;;20.74;48.18;101005.97;5061604;28;45437;-74
2022/08/29 02:10:26;;;;;;;;;1.67;1.67;;;;;20.73;48.27;100993.41;5078962;28;45440;-74
2022/08/29 02:12:52;;;;;;;;;2.33;2.00;;;;;20.68;48.82;100989.91;5061062;28;45849;-74
2022/08/29 02:15:19;;;;;;;;;2.00;2.00;;;;;20.71;48.56;100996.13;5079011;28;45466;-74
2022/08/29 02:17:47;;;;;;;;;2.00;2.00;;;;;20.64;48.83;100991.78;5061358;28;45480;-74
2022/08/29 02:20:12;;;;;;;;;1.67;1.67;;;;;20.63;48.62;100999.97;5056928;28;45483;-74
2022/08/29 02:22:38;;;;;;;;;3.67;3.33;;;;;20.57;48.82;100992.84;5059003;28;45468;-74
2022/08/29 02:25:40;;;;;;;;;2.00;2.00;;;;;20.52;49.49;100987.56;5057497;28;45418;-74
2022/08/29 02:27:52;;;;;;;;;2.00;2.00;;;;;20.50;49.02;100986.69;5058975;28;45380;-74
2022/08/29 02:30:20;;;;;;;;;1.00;1.00;;;;;20.51;49.39;100988.47;5058872;28;44778;-74
2022/08/29 02:32:46;;;;;;;;;0.50;0.50;;;;;20.43;49.22;100982.34;5058030;28;45453;-74
2022/08/29 02:35:12;;;;;;;;;4.00;2.00;;;;;20.39;49.69;100983.34;5058712;28;45440;-74
2022/08/29 02:37:38;;;;;;;;;2.00;2.00;;;;;20.39;49.41;100983.34;5058590;28;45428;-74
2022/08/29 02:40:04;;;;;;;;;5.00;3.00;;;;;20.32;49.43;100979.00;5057106;28;45654;-74
2022/08/29 02:42:30;;;;;;;;;2.67;2.67;;;;;20.34;49.77;100990.66;5058689;28;46167;-74
2022/08/29 02:44:56;;;;;;;;;2.00;2.00;;;;;20.31;49.90;100996.13;5058319;28;45326;-74
2022/08/29 02:47:21;;;;;;;;;1.67;1.67;;;;;20.31;49.50;100993.44;5058395;28;45353;-74
2022/08/29 02:49:47;;;;;;;;;3.00;3.00;;;;;20.33;49.60;100991.59;5057305;28;45399;-74
2022/08/29 02:52:19;;;;;;;;;2.00;2.00;;;;;20.31;49.71;100986.22;5058128;28;45464;-74
2022/08/29 02:54:46;;;;;;;;;2.00;2.00;;;;;20.31;49.99;100999.72;5057257;28;45669;-74
2022/08/29 02:57:11;;;;;;;;;0.75;0.75;;;;;20.33;49.54;100995.16;5058392;28;45478;-74
2022/08/29 02:59:37;;;;;;;;;2.00;1.00;;;;;20.37;49.67;100991.47;5058577;28;45477;-74
2022/08/29 03:02:03;;;;;;;;;1.33;1.33;;;;;20.39;49.56;100992.31;5058342;28;45358;-74
2022/08/29 03:04:28;;;;;;;;;2.67;2.67;;;;;20.39;49.64;100986.03;5056621;28;46186;-74
2022/08/29 03:06:54;;;;;;;;;4.00;2.67;;;;;20.37;49.74;100982.50;5058032;28;45418;-74
2022/08/29 03:09:19;;;;;;;;;2.00;2.00;;;;;20.36;50.12;100975.31;5058795;28;45507;-74
2022/08/29 03:11:45;;;;;;;;;1.00;1.00;;;;;20.29;49.52;100971.84;5055955;28;46381;-74
2022/08/29 03:14:10;;;;;;;;;2.00;2.00;;;;;20.26;50.57;100968.31;5057625;28;45511;-74
2022/08/29 03:16:36;;;;;;;;;3.00;3.00;;;;;20.22;49.83;100969.31;5056459;28;45479;-74
2022/08/29 03:19:08;;;;;;;;;2.00;2.00;;;;;20.20;50.01;100961.28;5056631;28;45501;-74
2022/08/29 03:21:33;;;;;;;;;2.50;2.50;;;;;20.23;50.21;100966.59;5077147;28;45413;-74
2022/08/29 03:23:59;;;;;;;;;6.00;2.50;;;;;20.30;49.95;100972.72;5077987;28;45309;-74
2022/08/29 03:26:24;;;;;;;;;1.00;1.00;;;;;20.31;50.12;100972.69;5077829;28;45573;-74
2022/08/29 03:28:50;;;;;;;;;3.67;3.00;;;;;20.30;50.02;100979.03;5078109;28;45470;-74
2022/08/29 03:31:16;;;;;;;;;2.00;2.00;;;;;20.32;49.96;100979.00;5077792;28;45424;-75
2022/08/29 03:33:42;;;;;;;;;3.00;2.00;;;;;20.27;50.26;100980.91;5078378;28;45356;-74
2022/08/29 03:36:08;;;;;;;;;4.33;3.00;;;;;20.26;50.36;100984.53;5060002;28;45529;-74
2022/08/29 03:38:36;;;;;;;;;1.33;1.00;;;;;20.17;50.10;100973.00;5085479;27;45420;-74
2022/08/29 03:41:03;;;;;;;;;3.00;3.00;;;;;20.17;50.16;100966.72;5099348;27;45488;-74
2022/08/29 03:43:29;;;;;;;;;2.00;2.00;;;;;20.12;50.54;100964.13;5080995;27;45424;-74
2022/08/29 03:45:54;;;;;;;;;2.00;2.00;;;;;20.12;49.95;100972.25;5099496;27;45511;-74
2022/08/29 03:48:20;;;;;;;;;1.67;1.67;;;;;20.09;50.66;100971.41;5099640;27;45424;-74
2022/08/29 03:50:47;;;;;;;;;2.00;2.00;;;;;20.10;50.92;100971.38;5080184;27;46581;-74
2022/08/29 03:53:12;;;;;;;;;3.00;3.00;;;;;20.07;50.28;100978.66;5099039;27;45440;-74
2022/08/29 03:55:39;;;;;;;;;3.00;1.67;;;;;20.02;51.00;100978.75;5098250;27;45512;-74
2022/08/29 03:58:06;;;;;;;;;2.00;2.00;;;;;19.94;51.40;100975.34;5080457;27;45814;-74
2022/08/29 04:00:32;;;;;;;;;2.00;2.00;;;;;19.93;50.90;100978.94;5098674;27;46626;-74
2022/08/29 04:02:58;;;;;;;;;3.00;2.00;;;;;19.95;51.31;100986.06;5068306;28;45438;-74
2022/08/29 04:05:25;;;;;;;;;2.00;2.00;;;;;19.96;51.17;100985.16;5060555;28;45578;-74
2022/08/29 04:11:14;;;;;;;;;2.67;2.67;;;;;19.99;51.02;100984.22;5078349;28;45351;-74
2022/08/29 04:13:41;;;;;;;;;2.67;2.33;;;;;20.00;51.34;100980.59;5059786;28;45501;-74
2022/08/29 04:16:20;;;;;;;;;1.67;1.67;;;;;20.03;50.94;100985.91;5078408;28;45414;-74
2022/08/29 04:18:46;;;;;;;;;4.00;2.33;;;;;19.98;50.98;100975.22;5078525;28;45378;-74
2022/08/29 04:21:14;;;;;;;;;3.00;2.00;;;;;19.97;51.26;100976.13;5077329;28;45358;-74
2022/08/29 04:23:40;;;;;;;;;4.00;2.00;;;;;19.97;51.68;100965.34;5077344;28;45571;-74
2022/08/29 04:26:16;;;;;;;;;2.33;2.00;;;;;19.93;52.14;100976.25;5077909;28;45475;-74
2022/08/29 04:28:41;;;;;;;;;5.00;3.33;;;;;19.84;52.06;100969.22;5078731;28;45450;-73
2022/08/29 04:31:12;;;;;;;;;2.00;2.00;;;;;19.80;52.21;100972.03;5078021;28;45758;-74
2022/08/29 04:33:39;;;;;;;;;2.67;2.00;;;;;19.77;51.84;100970.25;5059546;28;45441;-74
2022/08/29 04:36:05;;;;;;;;;3.33;3.33;;;;;19.71;52.52;100974.00;5059610;28;45601;-74
2022/08/29 04:38:31;;;;;;;;;4.00;2.00;;;;;19.64;52.37;100968.72;5077989;28;45501;-74
2022/08/29 04:40:57;;;;;;;;;1.75;1.75;;;;;19.61;52.91;100975.03;5077043;28;45365;-73
2022/08/29 04:43:23;;;;;;;;;1.00;1.00;;;;;19.54;53.20;100979.69;5058968;28;45444;-73
2022/08/29 04:45:55;;;;;;;;;3.00;3.00;;;;;19.53;52.70;100979.69;5058925;28;45513;-73
2022/08/29 04:48:21;;;;;;;;;2.33;2.33;;;;;19.53;53.42;100991.41;5077691;28;45443;-73
2022/08/29 04:50:55;;;;;;;;;3.00;3.00;;;;;19.53;52.68;100987.78;5058921;28;46677;-73
2022/08/29 04:53:20;;;;;;;;;2.00;2.00;;;;;19.47;52.80;100993.31;5076723;28;45536;-74
2022/08/29 04:56:09;;;;;;;;;4.00;4.00;;;;;19.48;53.37;101003.19;5058292;28;45416;-74
2022/08/29 04:58:37;;;;;;;;;2.75;2.00;;;;;19.49;52.82;100999.56;5077369;28;45978;-73
2022/08/29 05:01:03;;;;;;;;;2.67;2.67;;;;;19.52;53.07;100999.50;5076846;28;46163;-73
2022/08/29 05:03:29;;;;;;;;;2.00;2.00;;;;;19.52;53.23;101000.41;5058189;28;45455;-73
2022/08/29 05:06:00;;;;;;;;;3.67;2.67;;;;;19.53;52.64;100998.56;5057945;28;45492;-73
2022/08/29 05:08:30;;;;;;;;;4.33;3.00;;;;;19.56;53.54;100995.84;5076484;28;45479;-73
2022/08/29 05:10:55;;;;;;;;;3.00;3.00;;;;;19.59;52.96;101003.84;5076192;28;45503;-73
2022/08/29 05:13:22;;;;;;;;;3.00;3.00;;;;;19.53;53.11;101001.28;5057665;28;45697;-73
2022/08/29 05:15:48;;;;;;;;;2.00;2.00;;;;;19.49;53.58;101013.97;5057929;28;45498;-73
2022/08/29 05:18:16;;;;;;;;;3.00;2.67;;;;;19.45;53.96;101024.81;5076240;28;45420;-73
2022/08/29 05:20:44;;;;;;;;;4.33;3.00;;;;;19.46;53.74;101015.81;5073961;28;46930;-74
2022/08/29 05:23:10;;;;;;;;;3.00;3.00;;;;;19.46;53.63;101029.31;5076073;28;45538;-74
2022/08/29 05:25:36;;;;;;;;;2.00;2.00;;;;;19.47;53.76;101025.66;5057946;28;45833;-74
2022/08/29 05:28:03;;;;;;;;;2.00;2.00;;;;;19.49;53.70;101026.53;5058052;28;45555;-74
2022/08/29 05:30:30;;;;;;;;;2.00;2.00;;;;;19.50;53.31;101021.13;5075701;28;45501;-74
2022/08/29 05:32:55;;;;;;;;;2.00;2.00;;;;;19.49;53.56;101026.53;5076038;28;44850;-74
2022/08/29 05:35:20;;;;;;;;;2.33;2.33;;;;;19.53;53.36;101028.25;5060665;28;45402;-74
2022/08/29 05:37:46;;;;;;;;;3.00;3.00;;;;;19.52;53.18;101030.06;5072469;28;45589;-74
2022/08/29 05:40:13;;;;;;;;;2.33;2.33;;;;;19.55;53.11;101042.59;5061464;28;48324;-73
2022/08/29 05:42:39;;;;;;;;;4.00;4.00;;;;;19.56;53.64;101037.19;5080260;28;45517;-74
2022/08/29 05:45:06;;;;;;;;;2.33;2.33;;;;;19.64;53.43;101044.25;5061992;28;45819;-73
2022/08/29 05:47:32;;;;;;;;;3.00;3.00;;;;;19.71;53.20;101044.16;5080307;28;44990;-73
2022/08/29 05:49:59;;;;;;;;;3.00;3.00;;;;;19.76;53.10;101042.25;5078258;28;47433;-73
2022/08/29 05:52:27;;;;;;;;;4.00;2.00;;;;;19.84;52.63;101047.50;5080083;27;45865;-73
2022/08/29 05:54:52;;;;;;;;;3.00;3.00;;;;;19.86;52.98;101047.47;5099243;27;45545;-73
2022/08/29 05:57:21;;;;;;;;;5.67;3.00;;;;;19.95;52.36;101047.28;5100347;27;45493;-73
2022/08/29 05:59:48;;;;;;;;;3.00;3.00;;;;;20.01;52.41;101043.56;5080809;27;45790;-73
2022/08/29 06:02:15;;;;;;;;;4.00;4.00;;;;;20.11;51.95;101046.06;5098737;27;45492;-74
2022/08/29 06:04:42;;;;;;;;;2.00;2.00;;;;;20.27;52.04;101043.91;5098069;27;45750;-74
2022/08/29 06:07:09;;;;;;;;;3.67;3.33;;;;;20.39;51.82;101048.19;5079691;27;45877;-73
2022/08/29 06:09:37;;;;;;;;;3.00;3.00;;;;;20.43;51.09;101049.88;5079037;27;47149;-73
2022/08/29 06:12:03;;;;;;;;;1.00;1.00;;;;;20.46;51.37;101044.44;5097627;27;45439;-74
2022/08/29 06:14:28;;;;;;;;;2.33;2.33;;;;;20.68;51.06;101043.97;5097745;27;45398;-73
2022/08/29 06:16:54;;;;;;;;;2.00;2.00;;;;;20.82;49.75;101044.53;5096340;27;45536;-74
2022/08/29 06:19:19;;;;;;;;;2.33;2.33;;;;;20.76;50.14;101039.25;5097490;27;45389;-74
2022/08/29 06:21:46;;;;;;;;;2.00;2.00;;;;;20.78;50.43;101045.53;5075360;28;45407;-74
2022/08/29 06:24:11;;;;;;;;;2.33;2.33;;;;;20.88;49.79;101046.19;5077137;28;45403;-73
2022/08/29 06:26:36;;;;;;;;;4.00;3.00;;;;;20.95;49.54;101051.44;5075610;27;45362;-73
2022/08/29 06:29:09;;;;;;;;;2.00;2.00;;;;;20.91;49.47;101055.13;5066259;28;46983;-73
2022/08/29 06:31:34;;;;;;;;;3.00;3.00;;;;;20.86;49.02;101065.16;5064231;28;45516;-74
2022/08/29 06:34:02;;;;;;;;;3.00;3.00;;;;;20.84;49.62;101064.31;5069624;27;45479;-74
2022/08/29 06:36:30;;;;;;;;;2.67;2.67;;;;;20.95;49.28;101061.38;5067035;28;45310;-74
2022/08/29 06:38:57;;;;;;;;;5.00;4.33;;;;;20.95;48.91;101069.47;5068900;28;47173;-74
2022/08/29 06:41:24;;;;;;;;;2.33;2.33;;;;;20.83;49.45;101065.25;5066611;28;45611;-75
2022/08/29 06:43:51;;;;;;;;;2.00;2.00;;;;;20.70;49.52;101063.75;5066730;28;45728;-74
2022/08/29 06:46:25;;;;;;;;;4.33;3.00;;;;;20.75;49.53;101061.84;5068018;28;45429;-74
2022/08/29 06:48:52;;;;;;;;;4.00;4.00;;;;;20.88;49.85;101062.44;5075779;28;45430;-74
2022/08/29 06:51:18;;;;;;;;;3.00;3.00;;;;;20.88;49.34;101062.44;5065124;28;45315;-75
2022/08/29 06:53:44;;;;;;;;;3.33;3.33;;;;;20.88;49.63;101052.50;5069239;28;45527;-74
2022/08/29 06:56:10;;;;;;;;;3.67;2.00;;;;;21.00;49.38;101058.53;5069306;28;45567;-75
2022/08/29 06:58:36;;;;;;;;;4.67;4.67;;;;;21.05;49.28;101059.34;5083585;28;47905;-73
2022/08/29 07:01:16;;;;;;;;;2.00;2.00;;;;;21.08;49.48;101061.94;5078142;28;45364;-74
2022/08/29 07:03:41;;;;;;;;;2.33;2.33;;;;;21.10;48.44;101057.41;5078730;27;45732;-74
2022/08/29 07:06:09;;;;;;;;;2.00;2.00;;;;;21.04;48.56;101068.34;5077429;28;45623;-74
2022/08/29 07:08:37;;;;;;;;;3.33;3.33;;;;;21.04;49.04;101065.66;5079581;27;46268;-74
2022/08/29 07:11:02;;;;;;;;;3.33;3.33;;;;;21.04;49.06;101063.84;5079263;27;45526;-75
2022/08/29 07:13:30;;;;;;;;;2.00;2.00;;;;;21.04;48.89;101054.84;5077771;28;45464;-75
2022/08/29 07:15:56;;;;;;;;;2.67;2.67;;;;;21.00;49.14;101056.72;5062073;28;45359;-75
2022/08/29 07:18:22;;;;;;;;;3.67;3.67;;;;;21.04;49.19;101062.94;5068333;27;47689;-74
2022/08/29 07:20:48;;;;;;;;;7.00;3.33;;;;;21.10;48.90;101062.81;5085485;27;45578;-74
2022/08/29 07:23:13;;;;;;;;;2.67;2.67;;;;;21.13;48.61;101058.22;5078061;28;44801;-75
2022/08/29 07:25:39;;;;;;;;;3.00;3.00;;;;;21.17;48.91;101054.50;5079529;27;45762;-74
2022/08/29 07:28:05;;;;;;;;;5.67;5.00;;;;;21.29;48.88;101063.22;5062908;27;47009;-75
2022/08/29 07:30:37;;;;;;;;;5.00;3.00;;;;;21.31;48.48;101064.06;5059370;28;45469;-74
2022/08/29 07:33:03;;;;;;;;;3.00;3.00;;;;;21.20;48.42;101058.06;5069594;28;45450;-76
2022/08/29 07:35:29;;;;;;;;;3.00;3.00;;;;;21.15;48.63;101066.31;5073533;27;44837;-75
2022/08/29 07:37:56;;;;;;;;;4.33;4.00;;;;;21.13;48.72;101062.75;5064851;28;45707;-77
2022/08/29 07:40:23;;;;;;;;;4.00;3.00;;;;;21.16;48.65;101065.34;5076191;27;45484;-75
2022/08/29 07:42:49;;;;;;;;;3.00;3.00;;;;;21.14;48.96;101061.81;5070106;28;45396;-75
2022/08/29 07:45:16;;;;;;;;;4.67;3.00;;;;;21.14;48.59;101068.09;5074417;28;45429;-76
2022/08/29 07:47:43;;;;;;;;;2.67;2.67;;;;;21.20;48.89;101067.06;5060487;28;45488;-77
2022/08/29 07:50:11;;;;;;;;;3.00;3.00;;;;;21.27;48.42;101063.28;5058034;28;45412;-76
2022/08/29 07:52:36;;;;;;;;;1.00;0.00;;;;;21.27;48.66;101057.88;5057207;28;45339;-76
2022/08/29 07:55:04;;;;;;;;;6.67;3.33;;;;;21.46;48.61;101063.72;5072027;28;45337;-76
2022/08/29 07:57:29;;;;;;;;;6.00;4.33;;;;;;;;5063042;28;46933;-76
2022/08/29 07:59:55;;;;;;;;;4.67;4.67;;;;;21.63;48.03;101067.81;5074004;28;45493;-76
2022/08/29 08:02:26;;;;;;;;;3.00;3.00;;;;;21.67;47.71;101072.19;5060167;28;45528;-76
2022/08/29 08:04:52;;;;;;;;;4.00;4.00;;;;;21.73;47.97;101061.22;5059221;28;45413;-76
2022/08/29 08:07:18;;;;;;;;;3.33;3.33;;;;;21.76;47.36;101058.44;5073056;28;45398;-76
2022/08/29 08:09:43;;;;;;;;;4.33;4.33;;;;;21.77;47.55;101061.09;5071599;27;45506;-76
2022/08/29 08:12:09;;;;;;;;;4.00;3.00;;;;;21.82;47.73;101060.09;5062842;27;45337;-76
2022/08/29 08:14:35;;;;;;;;;3.00;3.00;;;;;21.91;47.93;101046.28;5058122;28;45419;-76
2022/08/29 08:17:09;;;;;;;;;5.67;4.33;;;;;22.00;47.39;101056.00;5076017;27;45496;-74
2022/08/29 08:19:36;;;;;;;;;7.33;6.67;;;;;22.05;47.03;101054.00;5058981;28;45443;-75
2022/08/29 08:22:02;;;;;;;;;3.33;3.33;;;;;22.20;46.95;101052.69;5080356;27;45490;-76
2022/08/29 08:24:28;;;;;;;;;4.33;4.00;;;;;22.34;47.00;101045.97;5070703;28;45426;-76
2022/08/29 08:26:53;;;;;;;;;5.00;4.67;;;;;22.48;46.67;101045.56;5073895;28;46847;-76
2022/08/29 08:29:19;;;;;;;;;5.67;5.67;;;;;22.42;46.25;101043.03;5075905;27;44950;-76
2022/08/29 08:31:48;;;;;;;;;4.67;4.67;;;;;22.50;46.37;101040.97;5079869;28;45498;-76
2022/08/29 08:34:18;;;;;;;;;4.00;4.00;;;;;22.63;45.61;101040.59;5073615;28;45500;-76
2022/08/29 08:36:45;;;;;;;;;5.33;5.00;;;;;22.62;45.79;101038.81;5085127;27;47042;-76
2022/08/29 08:39:13;;;;;;;;;5.00;5.00;;;;;22.57;45.20;101029.00;5045441;28;45575;-78
2022/08/29 08:42:03;;;;;;;;;3.00;3.00;;;;;22.64;44.99;101042.34;5079716;28;45445;-75
2022/08/29 08:44:48;;;;;;;;;3.00;3.00;;;;;22.68;45.12;101039.53;5061171;28;44886;-75
2022/08/29 08:47:24;;;;;;;;;4.33;4.33;;;;;22.75;44.55;101035.66;5068131;28;45403;-75
2022/08/29 08:50:05;;;;;;;;;5.00;4.00;;;;;22.83;45.03;101035.41;5073262;28;45390;-76
2022/08/29 08:52:51;;;;;;;;;3.67;3.67;;;;;23.02;43.71;101048.41;5063422;28;45362;-76
2022/08/29 08:55:42;;;;;;;;;5.00;5.00;;;;;22.95;43.80;101045.00;5076009;27;45372;-77
2022/08/29 08:58:29;;;;;;;;;4.67;4.00;;;;;22.77;43.99;101049.19;5065374;28;47348;-75
2022/08/29 09:01:02;;;;;;;;;4.00;4.00;;;;;22.73;44.74;101037.53;5058489;28;45405;-76
2022/08/29 09:03:39;;;;;;;;;3.33;3.33;;;;;22.88;44.79;101048.81;5075370;28;45429;-76
2022/08/29 09:06:31;;;;;;;;;6.33;4.33;;;;;22.99;44.62;101054.81;5077221;28;45400;-75
2022/08/29 09:09:30;;;;;;;;;3.67;3.00;;;;;23.00;44.71;101055.69;5065336;27;45982;-75
2022/08/29 09:12:26;;;;;;;;;4.00;4.00;;;;;23.11;45.04;101057.16;5058961;28;45076;-75
2022/08/29 09:15:19;;;;;;;;;5.00;5.00;;;;;23.27;43.88;101062.03;5069736;28;45402;-74
2022/08/29 09:18:03;;;;;;;;;5.67;5.00;;;;;23.42;43.04;101057.94;5070301;28;45436;-75
2022/08/29 09:20:43;;;;;;;;;6.67;5.33;;;;;23.41;43.29;101050.72;5065627;28;45454;-74
2022/08/29 09:23:38;;;;;;;;;4.67;4.67;;;;;23.33;43.45;101049.16;5088719;27;45437;-75
2022/08/29 09:26:08;;;;;;;;;6.67;5.00;;;;;23.27;43.82;101041.25;5073638;27;45490;-75
2022/08/29 09:28:35;;;;;;;;;8.00;5.33;;;;;23.33;44.29;101046.47;5056549;28;45035;-75
2022/08/29 09:31:18;;;;;;;;;6.00;5.00;;;;;23.45;44.16;101046.97;5057221;28;45537;-76
2022/08/29 09:33:59;;;;;;;;;5.00;4.33;;;;;23.60;43.23;101045.56;5058021;28;45445;-76
2022/08/29 09:36:41;;;;;;;;;7.00;5.00;;;;;23.75;43.37;101045.00;5065883;28;45739;-76
2022/08/29 09:39:30;;;;;;;;;5.00;5.00;;;;;23.70;43.10;101047.88;5060466;28;45560;-75
2022/08/29 09:42:18;;;;;;;;;4.00;4.00;;;;;23.64;43.22;101041.78;5059496;28;45446;-75
2022/08/29 09:44:53;;;;;;;;;5.00;5.00;;;;;23.70;43.27;101047.88;5060935;28;45660;-75
2022/08/29 09:47:28;;;;;;;;;4.67;4.67;;;;;23.84;43.02;101049.25;5062920;28;45398;-75
2022/08/29 09:50:16;;;;;;;;;5.67;5.00;;;;;23.94;43.42;101045.25;5061334;27;45486;-75
2022/08/29 09:52:53;;;;;;;;;6.00;6.00;;;;;24.00;43.33;101049.59;5072590;28;49072;-75
2022/08/29 09:55:44;;;;;;;;;6.00;6.00;;;;;24.01;42.94;101035.91;5062664;28;45564;-75
2022/08/29 09:58:19;;;;;;;;;6.00;5.00;;;;;24.05;42.88;101032.16;5062935;28;45462;-76
2022/08/29 10:01:10;;;;;;;;;5.00;5.00;;;;;24.12;43.21;101036.41;5057993;28;45568;-76
2022/08/29 10:03:41;;;;;;;;;4.67;4.33;;;;;24.20;42.83;101036.13;5061823;28;45157;-76
2022/08/29 10:06:25;;;;;;;;;6.33;2.33;;;;;24.19;42.82;101034.34;5071653;28;45405;-76
2022/08/29 10:09:22;;;;;;;;;3.00;3.00;;;;;24.28;42.74;101054.84;5059153;28;46941;-76
2022/08/29 10:11:54;;;;;;;;;4.00;4.00;;;;;24.29;42.76;101035.78;5057327;28;45549;-76
2022/08/29 10:14:58;;;;;;;;;9.67;5.67;;;;;24.41;42.48;101023.53;5062096;27;46396;-75
2022/08/29 10:20:27;;;;;;;;;5.67;5.67;;;;;24.53;42.32;101027.66;5067069;27;45953;-76
2022/08/29 10:23:16;;;;;;;;;5.33;5.33;;;;;24.46;42.87;101031.50;5084617;27;45459;-76
2022/08/29 10:25:44;;;;;;;;;5.67;5.00;;;;;24.45;42.78;101025.19;5081312;27;45365;-75
2022/08/29 10:28:41;;;;;;;;;8.33;6.67;;;;;24.61;42.48;101021.91;5081045;28;45338;-76
2022/08/29 10:31:34;;;;;;;;;6.67;6.33;;;;;24.69;42.57;101017.03;5085604;27;45462;-76
2022/08/29 10:34:23;;;;;;;;;3.67;3.67;;;;;24.78;42.17;101011.22;5101628;27;45815;-76
2022/08/29 10:37:02;;;;;;;;;4.67;4.00;;;;;24.79;42.21;101003.97;5067438;28;45520;-76
2022/08/29 10:39:43;;;;;;;;;6.00;5.00;;;;;24.97;42.41;101005.03;5079992;27;45438;-77
2022/08/29 10:42:15;;;;;;;;;5.33;5.33;;;;;25.02;41.46;100997.56;5090618;27;45517;-77
2022/08/29 10:45:05;;;;;;;;;6.33;6.00;;;;;25.02;42.52;100997.56;5082166;27;45561;-77
2022/08/29 10:47:49;;;;;;;;;5.67;5.67;;;;;25.06;41.74;101010.09;5062663;28;46893;-76
2022/08/29 10:50:37;;;;;;;;;6.00;6.00;;;;;25.06;41.72;101001.91;5078834;28;45709;-76
2022/08/29 10:53:15;;;;;;;;;7.33;5.33;;;;;25.11;42.83;100994.47;5096914;27;45510;-76
2022/08/29 10:55:58;;;;;;;;;6.67;6.67;;;;;25.19;42.06;100992.28;5095373;27;45379;-77
2022/08/29 10:58:53;;;;;;;;;6.67;6.67;;;;;25.25;42.00;101005.69;5080792;27;45497;-78
2022/08/29 11:01:41;;;;;;;;;5.67;5.67;;;;;25.26;42.74;101004.72;5058206;27;45503;-76
2022/08/29 11:04:50;;;;;;;;;5.33;5.33;;;;;25.43;41.45;101012.16;5114490;27;44841;-77
2022/08/29 11:07:31;;;;;;;;;5.00;5.00;;;;;25.44;42.08;100999.44;5064709;27;45400;-76
2022/08/29 11:10:03;;;;;;;;;3.33;2.00;;;;;25.51;41.70;101000.91;5071328;27;45513;-77
2022/08/29 11:12:51;;;;;;;;;5.00;5.00;;;;;25.63;41.64;100997.66;5098427;27;45389;-76
2022/08/29 11:15:40;;;;;;;;;5.00;5.00;;;;;25.67;40.70;100996.56;5081404;27;45485;-77
2022/08/29 11:18:17;;;;;;;;;8.00;8.00;;;;;25.64;41.05;100993.09;5080488;27;45441;-75
2022/08/29 11:20:49;;;;;;;;;7.00;6.67;;;;;25.65;41.11;100993.03;5096774;27;46198;-76
2022/08/29 11:23:36;;;;;;;;;6.67;6.67;;;;;25.65;41.56;100993.03;5091259;27;45784;-76
2022/08/29 11:26:15;;;;;;;;;7.33;7.00;;;;;25.66;40.53;100994.78;5079598;27;45322;-77
2022/08/29 11:29:05;;;;;;;;;7.33;7.33;;;;;25.58;40.96;100983.34;5081288;27;45471;-76
2022/08/29 11:31:55;;;;;;;;;6.67;6.00;;;;;25.65;41.38;100987.59;5070152;27;45695;-77
2022/08/29 11:34:44;;;;;;;;;5.00;5.00;;;;;25.71;40.89;100990.03;5099244;27;45452;-77
2022/08/29 11:38:02;;;;;;;;;5.00;5.00;;;;;25.67;40.75;100980.22;5065349;27;45539;-78
2022/08/29 11:41:00;;;;;;;;;7.00;6.67;;;;;25.71;40.93;100981.88;5006214;28;45563;-77
2022/08/29 11:43:34;;;;;;;;;6.33;6.33;;;;;25.77;40.53;100979.78;4997936;28;46662;-75
2022/08/29 11:46:06;;;;;;;;;9.67;8.00;;;;;25.82;40.86;100980.50;4987983;28;45614;-77
2022/08/29 11:48:37;;;;;;;;;7.33;7.00;;;;;25.93;39.97;100987.25;4980979;28;45464;-76
2022/08/29 11:51:36;;;;;;;;;5.33;5.33;;;;;25.99;39.57;100977.88;4980054;28;45740;-76
2022/08/29 11:54:23;;;;;;;;;7.00;7.00;;;;;25.97;39.83;100977.06;4980541;28;46168;-76
2022/08/29 11:57:01;;;;;;;;;5.33;5.00;;;;;26.02;39.81;100968.69;4995569;28;45412;-77